createdAt,value
2019-04-07T00:04:54.941Z,24.27
2019-04-07T00:09:58.201Z,26.83
2019-04-07T00:15:01.482Z,25.40
2019-04-07T00:20:06.634Z,24.80
2019-04-07T00:25:10.705Z,25.13
2019-04-07T00:30:14.553Z,26.40
2019-04-07T00:35:26.504Z,27.83
2019-04-07T00:40:22.729Z,26.77
2019-04-07T00:45:26.339Z,25.60
2019-04-07T00:50:30.593Z,26.70
2019-04-07T01:00:41.368Z,25.20
2019-04-07T01:05:44.955Z,24.70
2019-04-07T01:10:48.219Z,24.77
2019-04-07T01:15:51.478Z,24.53
2019-04-07T01:20:54.746Z,23.57
2019-04-07T01:25:58.564Z,23.50
2019-04-07T01:31:02.362Z,24.23
2019-04-07T01:36:05.906Z,21.90
2019-04-07T01:41:13.745Z,21.30
2019-04-07T01:46:21.781Z,20.67
2019-04-07T01:51:26.781Z,21.93
2019-04-07T01:56:47.050Z,22.30
2019-04-07T02:02:07.199Z,21.00
2019-04-07T02:07:14.905Z,24.70
2019-04-07T02:12:19.936Z,22.77
2019-04-07T02:17:25.222Z,22.43
2019-04-07T02:22:35.776Z,21.93
2019-04-07T02:27:41.013Z,21.80
2019-04-07T02:32:58.380Z,23.30
2019-04-07T02:38:04.020Z,22.00
2019-04-07T02:43:15.925Z,22.67
2019-04-07T02:48:22.087Z,23.03
2019-04-07T02:53:33.147Z,22.60
2019-04-07T02:58:55.095Z,22.30
2019-04-07T03:04:06.034Z,21.17
2019-04-07T03:09:23.047Z,20.53
2019-04-07T03:14:28.455Z,24.80
2019-04-07T03:19:48.613Z,22.73
2019-04-07T03:24:53.597Z,23.80
2019-04-07T03:30:15.143Z,22.43
2019-04-07T03:35:30.166Z,23.63
2019-04-07T03:40:39.722Z,20.43
2019-04-07T03:46:00.294Z,20.60
2019-04-07T03:51:24.514Z,20.97
2019-04-07T03:56:41.771Z,21.63
2019-04-07T04:01:47.757Z,21.27
2019-04-07T04:06:56.738Z,21.50
2019-04-07T04:12:05.124Z,21.63
2019-04-07T04:17:08.452Z,20.90
2019-04-07T04:22:12.796Z,21.73
2019-04-07T04:27:16.933Z,20.97
2019-04-07T04:32:21.858Z,21.13
2019-04-07T04:37:36.220Z,21.50
2019-04-07T04:42:31.177Z,20.67
2019-04-07T04:47:34.593Z,19.97
2019-04-07T04:52:38.354Z,19.93
2019-04-07T04:57:42.494Z,20.43
2019-04-07T05:02:46.903Z,19.57
2019-04-07T05:07:59.203Z,16.33
2019-04-07T05:12:56.122Z,13.77
2019-04-07T05:18:00.404Z,19.23
2019-04-07T05:23:04.119Z,18.80
2019-04-07T05:28:07.439Z,17.90
2019-04-07T05:33:11.078Z,15.90
2019-04-07T05:38:14.784Z,6.80
2019-04-07T05:43:18.485Z,11.50
2019-04-07T05:48:21.926Z,14.17
2019-04-07T05:53:26.612Z,9.30
2019-04-07T05:58:29.969Z,16.47
2019-04-07T06:03:33.262Z,16.37
2019-04-07T06:08:39.231Z,18.20
2019-04-07T06:13:43.870Z,16.17
2019-04-07T06:18:46.671Z,16.00
2019-04-07T06:23:49.876Z,15.63
2019-04-07T06:28:57.402Z,15.43
2019-04-07T06:33:58.928Z,15.37
2019-04-07T06:39:02.492Z,15.40
2019-04-07T06:44:25.550Z,14.77
2019-04-07T06:49:30.417Z,15.23
2019-04-07T06:54:41.460Z,15.60
2019-04-07T07:00:02.426Z,15.80
2019-04-07T07:05:25.692Z,15.53
2019-04-07T07:10:35.549Z,20.57
2019-04-07T07:15:43.832Z,17.97
2019-04-07T07:21:04.378Z,11.00
2019-04-07T07:26:09.078Z,11.57
2019-04-07T07:31:13.401Z,10.30
2019-04-07T07:36:19.162Z,8.13
2019-04-07T07:41:23.308Z,6.57
2019-04-07T07:46:26.863Z,5.17
2019-04-07T07:51:30.361Z,9.20
2019-04-07T07:56:34.564Z,15.13
2019-04-07T08:01:37.967Z,6.90
2019-04-07T08:06:41.252Z,11.23
2019-04-07T08:11:44.563Z,6.03
2019-04-07T08:16:47.937Z,4.43
2019-04-07T08:21:51.990Z,4.90
2019-04-07T08:26:57.208Z,3.73
2019-04-07T08:32:02.004Z,4.70
2019-04-07T08:37:05.989Z,5.50
2019-04-07T08:42:11.818Z,5.30
2019-04-07T08:47:19.202Z,4.63
2019-04-07T08:52:19.631Z,5.50
2019-04-07T08:57:23.339Z,5.37
2019-04-07T09:02:29.316Z,6.40
2019-04-07T09:07:33.376Z,7.53
2019-04-07T09:12:36.433Z,4.37
2019-04-07T09:17:59.147Z,4.50
2019-04-07T09:23:07.102Z,3.73
2019-04-07T09:28:12.043Z,4.60
2019-04-07T09:33:29.808Z,4.13
2019-04-07T09:38:38.575Z,3.97
2019-04-07T09:44:02.094Z,4.30
2019-04-07T09:49:23.595Z,7.10
2019-04-07T09:54:28.560Z,5.33
2019-04-07T10:02:41.218Z,6.10
2019-04-07T10:07:49.149Z,5.07
2019-04-07T10:12:56.574Z,5.40
2019-04-07T10:18:20.464Z,5.50
2019-04-07T10:23:28.770Z,4.77
2019-04-07T10:28:41.897Z,5.00
2019-04-07T10:33:50.568Z,4.27
2019-04-07T10:38:56.970Z,4.30
2019-04-07T10:44:05.637Z,4.87
2019-04-07T10:49:20.653Z,4.37
2019-04-07T10:54:35.535Z,3.97
2019-04-07T10:59:56.865Z,4.20
2019-04-07T11:05:11.945Z,10.83
2019-04-07T11:10:34.478Z,4.53
2019-04-07T11:15:45.826Z,4.03
2019-04-07T11:21:07.715Z,4.07
2019-04-07T11:26:25.284Z,4.33
2019-04-07T11:31:31.084Z,4.10
2019-04-07T11:36:39.681Z,4.40
2019-04-07T11:41:51.488Z,3.90
2019-04-07T11:46:57.497Z,3.50
2019-04-07T11:52:06.022Z,5.13
2019-04-07T11:57:21.374Z,4.93
2019-04-07T12:02:36.407Z,5.63
2019-04-07T12:07:42.186Z,6.70
2019-04-07T12:13:04.800Z,6.40
2019-04-07T12:18:26.660Z,6.30
2019-04-07T12:23:50.525Z,6.73
2019-04-07T12:29:01.563Z,6.90
2019-04-07T12:34:10.235Z,7.40
2019-04-07T12:39:20.216Z,8.47
2019-04-07T12:44:41.953Z,8.80
2019-04-07T12:49:47.267Z,7.23
2019-04-07T12:55:02.968Z,7.73
2019-04-07T13:00:13.550Z,7.53
2019-04-07T13:05:25.005Z,8.43
2019-04-07T13:10:32.541Z,7.90
2019-04-07T13:15:48.947Z,8.10
2019-04-07T13:20:54.825Z,8.70
2019-04-07T13:26:01.030Z,8.27
2019-04-07T13:31:17.001Z,7.60
2019-04-07T13:36:25.280Z,7.50
2019-04-07T13:41:41.692Z,8.20
2019-04-07T13:46:48.937Z,8.40
2019-04-07T13:52:00.084Z,8.23
2019-04-07T13:57:07.287Z,8.23
2019-04-07T14:02:24.786Z,8.80
2019-04-07T14:07:40.267Z,7.93
2019-04-07T14:13:04.732Z,8.30
2019-04-07T14:18:19.085Z,8.30
2019-04-07T14:23:41.059Z,8.83
2019-04-07T14:28:47.549Z,8.47
2019-04-07T14:34:02.004Z,7.53
2019-04-07T14:39:12.856Z,7.27
2019-04-07T14:44:33.650Z,7.60
2019-04-07T14:49:39.259Z,7.13
2019-04-07T14:55:01.645Z,8.03
2019-04-07T15:00:09.472Z,8.00
2019-04-07T15:05:27.685Z,8.27
2019-04-07T15:10:52.667Z,9.10
2019-04-07T15:15:57.167Z,9.67
2019-04-07T15:21:01.680Z,13.13
2019-04-07T15:26:06.738Z,8.57
2019-04-07T15:31:11.791Z,9.30
2019-04-07T15:36:18.763Z,5.93
2019-04-07T15:41:20.977Z,5.30
2019-04-07T15:46:25.619Z,4.53
2019-04-07T15:51:29.511Z,4.80
2019-04-07T15:56:33.711Z,4.50
2019-04-07T16:01:38.632Z,5.10
2019-04-07T16:06:47.028Z,5.50
2019-04-07T16:11:50.329Z,6.77
2019-04-07T16:16:54.774Z,6.50
2019-04-07T16:21:58.733Z,6.00
2019-04-07T16:27:05.407Z,4.80
2019-04-07T16:32:11.396Z,6.60
2019-04-07T16:37:15.916Z,4.10
2019-04-07T16:42:21.134Z,4.30
2019-04-07T16:47:26.272Z,4.03
2019-04-07T16:52:32.908Z,7.17
2019-04-07T16:57:36.335Z,4.50
2019-04-07T17:02:39.990Z,4.50
2019-04-07T17:07:45.516Z,3.80
2019-04-07T17:12:49.391Z,6.63
2019-04-07T17:17:54.773Z,5.57
2019-04-07T17:22:58.519Z,5.33
2019-04-07T17:28:03.739Z,7.63
2019-04-07T17:33:08.155Z,9.80
2019-04-07T17:38:13.068Z,7.20
2019-04-07T17:43:43.530Z,5.90
2019-04-07T17:48:50.384Z,8.40
2019-04-07T17:53:58.231Z,8.60
2019-04-07T17:59:08.667Z,7.53
2019-04-07T18:04:15.550Z,7.03
2019-04-07T18:09:29.814Z,5.80
2019-04-07T18:14:53.894Z,5.40
2019-04-07T18:20:12.964Z,4.03
2019-04-07T18:25:18.368Z,3.50
2019-04-07T18:30:32.391Z,3.77
2019-04-07T18:35:39.694Z,3.07
2019-04-07T18:40:44.981Z,3.50
2019-04-07T18:46:07.277Z,3.30
2019-04-07T18:51:29.368Z,6.00
2019-04-07T18:56:40.152Z,4.10
2019-04-07T19:01:47.260Z,3.80
2019-04-07T19:06:56.573Z,4.20
2019-04-07T19:12:14.176Z,4.43
2019-04-07T19:17:24.051Z,3.60
2019-04-07T19:22:28.755Z,9.97
2019-04-07T19:27:40.570Z,5.60
2019-04-07T19:32:54.289Z,6.97
2019-04-07T19:38:09.685Z,7.63
2019-04-07T19:43:33.183Z,5.43
2019-04-07T19:48:47.507Z,5.00
2019-04-07T19:53:53.606Z,4.30
2019-04-07T19:58:59.829Z,3.60
2019-04-07T20:04:12.686Z,5.00
2019-04-07T20:09:27.859Z,4.77
2019-04-07T20:14:49.304Z,4.37
2019-04-07T20:19:49.416Z,4.50
2019-04-07T20:25:16.983Z,4.97
2019-04-07T20:30:21.233Z,6.77
2019-04-07T20:35:29.694Z,6.20
2019-04-07T20:40:44.467Z,4.80
2019-04-07T20:45:50.078Z,5.73
2019-04-07T20:50:56.265Z,6.40
2019-04-07T20:56:17.371Z,5.40
2019-04-07T21:01:42.988Z,5.73
2019-04-07T21:06:48.238Z,5.27
2019-04-07T21:12:10.462Z,5.80
2019-04-07T21:17:24.742Z,5.20
2019-04-07T21:22:40.078Z,5.93
2019-04-07T21:28:00.063Z,5.60
2019-04-07T21:33:11.188Z,5.17
2019-04-07T21:38:24.243Z,5.00
2019-04-07T21:43:31.967Z,5.40
2019-04-07T21:48:39.981Z,5.50
2019-04-07T21:53:45.488Z,5.30
2019-04-07T21:59:07.508Z,5.37
2019-04-07T22:04:18.879Z,5.73
2019-04-07T22:09:23.267Z,5.50
2019-04-07T22:14:27.000Z,5.47
2019-04-07T22:19:30.761Z,5.23
2019-04-07T22:24:35.992Z,5.47
2019-04-07T22:29:39.866Z,5.60
2019-04-07T22:34:44.035Z,5.87
2019-04-07T22:39:48.991Z,5.67
2019-04-07T22:44:54.383Z,6.07
2019-04-07T22:50:02.508Z,6.03
2019-04-07T22:55:08.430Z,6.10
2019-04-07T23:00:14.929Z,5.97
2019-04-07T23:05:19.170Z,5.73
2019-04-07T23:10:23.265Z,6.17
2019-04-07T23:15:38.627Z,5.67
2019-04-07T23:20:33.019Z,5.87
2019-04-07T23:25:37.044Z,6.17
2019-04-07T23:30:41.041Z,6.73
2019-04-07T23:35:47.419Z,6.50
2019-04-07T23:40:51.497Z,6.97
2019-04-07T23:45:55.936Z,7.20
2019-04-07T23:50:59.745Z,6.77
2019-04-07T23:56:03.964Z,7.33
